Time;durP1;ratioP1;P1;durP2;ratioP2;P2;SDS_P1;SDS_P2;PMS_P1;PMS_P2;Temp;Humidity;BMP_temperature;BMP_pressure;BME280_temperature;BME280_humidity;BME280_pressure;Samples;Min_cycle;Max_cycle;Signal;HPM_P1;HPM_P2
2022/10/28 00:01:14;;;;;;;9.10;4.47;;;;;;;18.00;96.01;101768.69;2088527;28;20045;-72
2022/10/28 00:02:39;;;;;;;12.57;4.07;;;;;;;18.00;95.47;101762.44;2084710;28;20555;-72
2022/10/28 00:04:03;;;;;;;8.48;3.40;;;;;;;18.00;95.15;101762.44;2077587;28;20060;-72
2022/10/28 00:05:24;;;;;;;10.45;4.78;;;;;;;18.02;94.30;101753.56;2084140;28;20043;-73
2022/10/28 00:06:47;;;;;;;10.15;3.63;;;;;;;18.03;94.14;101757.13;2085175;28;20044;-72
2022/10/28 00:08:08;;;;;;;11.70;3.78;;;;;;;18.01;93.25;101759.78;2093876;28;20046;-72
2022/10/28 00:09:31;;;;;;;10.80;4.50;;;;;;;18.01;92.86;101753.53;2089604;28;20052;-72
2022/10/28 00:10:53;;;;;;;8.95;3.55;;;;;;;18.03;92.55;101755.34;2102005;28;20040;-72
2022/10/28 00:12:16;;;;;;;15.23;3.67;;;;;;;18.06;92.17;101747.31;2090706;28;20044;-72
2022/10/28 00:13:38;;;;;;;6.30;3.40;;;;;;;18.07;91.94;101754.44;2087179;28;20199;-72
2022/10/28 00:15:00;;;;;;;;;;;;;;;18.02;92.05;101748.22;2093817;28;20052;-72
2022/10/28 00:16:25;;;;;;;12.45;3.85;;;;;;;18.05;92.63;101750.88;2082131;28;20400;-72
2022/10/28 00:17:47;;;;;;;11.55;4.60;;;;;;;18.12;93.28;101749.97;2089469;28;20119;-72
2022/10/28 00:19:13;;;;;;;9.15;4.32;;;;;;;18.18;94.03;101749.13;2085491;28;20049;-72
2022/10/28 00:20:34;;;;;;;10.77;3.92;;;;;;;18.18;94.67;101749.97;2093943;28;20041;-72
2022/10/28 00:21:57;;;;;;;;;;;;;;;18.18;95.86;101738.44;2089938;28;20068;-72
2022/10/28 00:23:19;;;;;;;10.82;4.85;;;;;;;18.20;96.85;101732.19;2088751;28;19927;-72
2022/10/28 00:24:41;;;;;;;17.20;6.00;;;;;;;18.24;99.45;101755.38;2077159;28;20061;-72
2022/10/28 00:26:04;;;;;;;15.38;4.97;;;;;;;18.27;100.00;101754.44;2091297;28;20052;-72
2022/10/28 00:27:28;;;;;;;14.07;4.88;;;;;;;18.29;100.00;101755.34;2090771;28;20489;-72
2022/10/28 00:28:51;;;;;;;13.20;4.43;;;;;;;18.30;100.00;101760.72;2086082;28;20045;-72
2022/10/28 00:30:14;;;;;;;13.75;5.20;;;;;;;18.37;100.00;101750.91;2103534;28;20143;-72
2022/10/28 00:31:38;;;;;;;15.25;5.47;;;;;;;18.43;100.00;101752.69;2099145;28;20049;-72
2022/10/28 00:32:59;;;;;;;17.95;5.03;;;;;;;18.46;100.00;101755.34;2095391;28;20141;-72
2022/10/28 00:34:24;;;;;;;16.48;6.65;;;;;;;18.49;100.00;101750.88;2096421;28;20571;-72
2022/10/28 00:35:45;;;;;;;13.65;5.60;;;;;;;18.55;100.00;101750.91;2102214;28;20070;-72
2022/10/28 00:37:07;;;;;;;13.45;4.72;;;;;;;18.59;100.00;101747.31;2095163;28;20056;-72
2022/10/28 00:38:30;;;;;;;14.98;5.50;;;;;;;18.60;100.00;101746.44;2084663;28;20466;-72
2022/10/28 00:39:52;;;;;;;13.20;4.90;;;;;;;18.57;100.00;101761.63;2089550;28;20056;-72
2022/10/28 00:41:17;;;;;;;10.50;5.15;;;;;;;18.54;100.00;101754.44;2092694;28;20045;-72
2022/10/28 00:42:40;;;;;;;16.75;5.60;;;;;;;18.54;100.00;101762.47;2103670;28;20580;-72
2022/10/28 00:44:23;;;;;;;13.98;6.00;;;;;;;18.56;100.00;101762.50;2097774;28;20099;-72
2022/10/28 00:45:44;;;;;;;13.55;5.38;;;;;;;18.58;100.00;101758.91;2097635;28;20089;-72
2022/10/28 00:47:13;;;;;;;12.00;5.40;;;;;;;18.57;100.00;101761.63;2103097;28;20048;-72
2022/10/28 00:48:34;;;;;;;16.83;5.10;;;;;;;18.55;100.00;101753.59;2097257;28;20075;-72
2022/10/28 00:50:06;;;;;;;18.17;5.60;;;;;;;18.56;100.00;101747.34;2094920;28;20131;-73
2022/10/28 00:51:30;;;;;;;17.30;5.22;;;;;;;18.57;100.00;101749.13;2095316;28;20475;-73
2022/10/28 00:52:57;;;;;;;17.50;6.18;;;;;;;18.61;100.00;101755.34;2081111;28;20049;-73
2022/10/28 00:54:20;;;;;;;16.00;5.38;;;;;;;18.60;100.00;101746.44;2092069;28;20474;-73
2022/10/28 00:55:43;;;;;;;14.90;5.90;;;;;;;18.61;100.00;101732.19;2092761;28;20570;-72
2022/10/28 00:57:10;;;;;;;13.23;4.85;;;;;;;18.66;100.00;101741.06;2095205;28;20101;-72
2022/10/28 00:58:33;;;;;;;14.48;4.40;;;;;;;18.69;100.00;101730.38;2101980;28;20040;-72
2022/10/28 00:59:55;;;;;;;14.23;5.15;;;;;;;18.74;100.00;101738.38;2094852;28;20059;-72
2022/10/28 01:01:18;;;;;;;18.27;5.47;;;;;;;18.76;100.00;101736.63;2100696;28;20507;-72
2022/10/28 01:02:43;;;;;;;19.33;4.28;;;;;;;18.81;100.00;101736.59;2094510;28;20041;-72
2022/10/28 01:04:08;;;;;;;12.18;4.78;;;;;;;18.86;100.00;101732.09;2087079;28;20536;-72
2022/10/28 01:05:34;;;;;;;13.93;4.63;;;;;;;18.89;100.00;101727.66;2101082;28;20048;-73
2022/10/28 01:06:59;;;;;;;12.35;4.50;;;;;;;18.86;100.00;101735.69;2091231;28;20111;-72
2022/10/28 01:08:21;;;;;;;12.18;4.70;;;;;;;18.84;100.00;101740.13;2094986;28;20547;-72
2022/10/28 01:09:43;;;;;;;14.07;4.55;;;;;;;18.81;100.00;101729.47;2088944;28;20041;-72
2022/10/28 01:11:20;;;;;;;14.23;4.93;;;;;;;18.83;100.00;101733.03;2086518;28;20132;-72
2022/10/28 01:12:53;;;;;;;13.70;4.60;;;;;;;18.86;100.00;101730.31;2092786;28;20116;-72
2022/10/28 01:14:22;;;;;;;15.05;4.32;;;;;;;18.87;100.00;101726.75;2099484;28;20051;-72
2022/10/28 01:15:55;;;;;;;13.35;4.10;;;;;;;18.85;100.00;101724.97;2092203;28;20650;-72
2022/10/28 01:17:35;;;;;;;12.07;4.68;;;;;;;18.86;100.00;101708.03;2104101;28;20467;-72
2022/10/28 01:19:22;;;;;;;12.65;4.70;;;;;;;18.87;100.00;101724.09;2104001;28;20525;-72
2022/10/28 01:21:38;;;;;;;13.48;5.20;;;;;;;18.85;100.00;101724.97;2105281;28;20503;-72
2022/10/28 01:23:12;;;;;;;11.20;5.13;;;;;;;18.84;100.00;101724.06;2082712;28;20493;-72
2022/10/28 01:25:04;;;;;;;18.65;5.35;;;;;;;18.83;100.00;101735.72;2095017;28;20070;-72
2022/10/28 01:26:57;;;;;;;11.77;4.63;;;;;;;18.81;100.00;101732.13;2097676;28;20101;-72
2022/10/28 01:28:39;;;;;;;11.35;4.32;;;;;;;18.76;100.00;101725.91;2081748;28;20548;-72
2022/10/28 01:30:11;;;;;;;16.30;5.45;;;;;;;18.75;100.00;101709.84;2089654;28;20041;-72
2022/10/28 01:31:41;;;;;;;18.77;4.75;;;;;;;18.74;100.00;101717.00;2086601;28;20712;-72
2022/10/28 01:33:09;;;;;;;16.92;4.75;;;;;;;18.77;100.00;101717.00;2096006;28;20052;-72
2022/10/28 01:34:35;;;;;;;13.23;5.65;;;;;;;18.78;100.00;101712.50;2093522;28;20105;-72
2022/10/28 01:36:07;;;;;;;12.43;4.75;;;;;;;18.76;100.00;101709.84;2093102;28;20044;-72
2022/10/28 01:37:35;;;;;;;13.35;4.95;;;;;;;18.79;100.00;101714.28;2078515;28;20402;-72
2022/10/28 01:39:06;;;;;;;12.68;4.38;;;;;;;18.80;100.00;101711.63;2095905;28;20152;-72
2022/10/28 01:40:34;;;;;;;12.75;4.97;;;;;;;18.82;100.00;101709.84;2088998;28;20191;-73
2022/10/28 01:42:01;;;;;;;18.25;5.78;;;;;;;18.82;100.00;101704.50;2089459;28;20063;-72
2022/10/28 01:43:29;;;;;;;13.95;4.63;;;;;;;18.84;100.00;101701.81;2084011;28;20442;-72
2022/10/28 01:44:59;;;;;;;12.23;4.45;;;;;;;18.86;100.00;101705.34;2100379;28;20056;-73
2022/10/28 01:46:26;;;;;;;15.93;5.28;;;;;;;18.88;100.00;101711.59;2087861;28;20045;-72
2022/10/28 01:47:57;;;;;;;14.95;5.00;;;;;;;18.87;100.00;101700.00;2100570;28;20104;-72
2022/10/28 01:49:27;;;;;;;14.20;4.20;;;;;;;18.88;100.00;101700.91;2079320;28;20165;-72
2022/10/28 01:50:57;;;;;;;12.75;4.63;;;;;;;18.90;100.00;101691.97;2086658;28;20057;-72
2022/10/28 01:52:21;;;;;;;16.10;5.13;;;;;;;18.89;100.00;101687.53;2087192;28;20097;-72
2022/10/28 01:53:47;;;;;;;11.98;4.53;;;;;;;18.91;100.00;101692.84;2090136;28;20595;-72
2022/10/28 01:55:14;;;;;;;14.80;4.55;;;;;;;18.91;100.00;101698.19;2087100;28;20574;-72
2022/10/28 01:56:40;;;;;;;13.02;4.38;;;;;;;18.90;100.00;101702.69;2087712;28;20041;-72
2022/10/28 01:58:04;;;;;;;11.85;5.05;;;;;;;18.92;100.00;101697.31;2098196;28;20060;-72
2022/10/28 01:59:29;;;;;;;15.43;5.45;;;;;;;18.92;100.00;101702.66;2103143;28;20055;-72
2022/10/28 02:00:52;;;;;;;16.10;4.85;;;;;;;18.93;100.00;101696.41;2098552;28;20040;-72
2022/10/28 02:02:15;;;;;;;13.88;4.57;;;;;;;18.95;100.00;101698.19;2088714;28;20048;-72
2022/10/28 02:03:38;;;;;;;12.82;4.45;;;;;;;18.98;100.00;101686.56;2089156;28;20048;-72
2022/10/28 02:05:42;;;;;;;16.30;4.88;;;;;;;18.99;100.00;101699.94;2094886;28;20080;-72
2022/10/28 02:07:05;;;;;;;13.55;4.80;;;;;;;19.02;100.00;101699.06;2097726;28;20044;-72
2022/10/28 02:08:54;;;;;;;18.48;5.65;;;;;;;19.05;100.00;101688.31;2087626;28;20483;-72
2022/10/28 02:10:23;;;;;;;15.77;4.22;;;;;;;19.07;100.00;101687.44;2096889;28;20162;-72
2022/10/28 02:12:00;;;;;;;14.30;4.63;;;;;;;19.07;100.00;101692.78;2092163;28;20041;-72
2022/10/28 02:13:29;;;;;;;12.68;4.38;;;;;;;19.09;100.00;101687.44;2103182;28;20047;-73
2022/10/28 02:15:24;;;;;;;13.80;4.88;;;;;;;19.14;100.00;101690.09;2106987;28;20048;-72
2022/10/28 02:16:50;;;;;;;13.75;5.57;;;;;;;19.14;100.00;101692.75;2080435;28;20064;-72
2022/10/28 02:18:24;;;;;;;16.20;5.72;;;;;;;19.14;100.00;101698.13;2084602;28;20045;-72
2022/10/28 02:19:52;;;;;;;18.23;6.28;;;;;;;19.14;100.00;101703.47;2079288;28;20046;-72
2022/10/28 02:21:21;;;;;;;15.60;5.63;;;;;;;19.14;100.00;101712.38;2084585;28;20132;-72
2022/10/28 02:22:48;;;;;;;16.48;5.22;;;;;;;19.14;100.00;101703.47;2084960;28;20045;-74
2022/10/28 02:24:19;;;;;;;15.02;5.55;;;;;;;19.15;100.00;101707.94;2088150;28;20131;-74
2022/10/28 02:25:44;;;;;;;11.60;5.03;;;;;;;19.16;100.00;101707.94;2095246;28;20575;-73
2022/10/28 02:27:13;;;;;;;14.48;6.07;;;;;;;19.16;100.00;101707.94;2088384;28;20695;-73
2022/10/28 02:28:40;;;;;;;11.48;4.47;;;;;;;19.16;100.00;101702.56;2080359;28;20159;-73
2022/10/28 02:30:07;;;;;;;14.45;4.82;;;;;;;19.16;100.00;101709.72;2087373;28;20051;-73
2022/10/28 02:31:34;;;;;;;14.63;5.13;;;;;;;19.16;100.00;101712.38;2090585;28;20083;-73
2022/10/28 02:33:02;;;;;;;12.60;4.38;;;;;;;19.12;100.00;101711.50;2087746;28;20033;-73
2022/10/28 02:34:28;;;;;;;16.23;5.00;;;;;;;19.10;100.00;101708.81;2087822;28;20041;-73
2022/10/28 02:35:58;;;;;;;15.73;4.65;;;;;;;19.08;100.00;101707.97;2093088;28;20044;-73
2022/10/28 02:37:24;;;;;;;16.58;5.25;;;;;;;19.09;100.00;101716.88;2092764;28;20132;-73
2022/10/28 02:38:48;;;;;;;20.05;5.40;;;;;;;19.10;100.00;101711.50;2080356;28;20095;-73
2022/10/28 02:40:17;;;;;;;11.80;4.05;;;;;;;19.07;100.00;101713.31;2087626;28;20163;-73
2022/10/28 02:41:45;;;;;;;13.80;5.13;;;;;;;19.01;100.00;101711.56;2088538;28;20185;-73
2022/10/28 02:43:10;;;;;;;9.38;4.68;;;;;;;18.94;100.00;101717.81;2092277;28;20143;-73
2022/10/28 02:44:37;;;;;;;13.43;4.60;;;;;;;18.91;100.00;101722.28;2099288;28;20036;-72
2022/10/28 02:46:04;;;;;;;12.70;4.63;;;;;;;18.87;100.00;101712.50;2102579;28;20162;-73
2022/10/28 02:47:31;;;;;;;13.55;4.57;;;;;;;18.85;100.00;101715.16;2098905;28;20040;-73
2022/10/28 02:48:56;;;;;;;17.77;5.00;;;;;;;18.84;100.00;101718.72;2098124;28;20392;-73
2022/10/28 02:50:22;;;;;;;11.40;4.15;;;;;;;18.84;100.00;101720.53;2086550;28;20198;-73
2022/10/28 02:51:52;;;;;;;11.55;4.38;;;;;;;18.82;100.00;101716.97;2092789;28;20052;-72
2022/10/28 02:53:18;;;;;;;16.42;4.85;;;;;;;18.81;100.00;101702.69;2098881;28;20045;-73
2022/10/28 02:54:44;;;;;;;10.27;3.90;;;;;;;18.80;100.00;101713.41;2094960;28;20071;-73
2022/10/28 02:56:08;;;;;;;13.77;4.90;;;;;;;18.79;100.00;101703.59;2100789;28;20047;-72
2022/10/28 02:57:34;;;;;;;12.80;3.75;;;;;;;18.80;100.00;101703.59;2086366;28;20389;-73
2022/10/28 02:58:56;;;;;;;14.85;4.50;;;;;;;18.80;100.00;101711.63;2095046;28;20113;-72
2022/10/28 03:00:23;;;;;;;12.30;4.45;;;;;;;18.80;100.00;101714.28;2094177;28;20060;-72
2022/10/28 03:01:44;;;;;;;11.98;3.38;;;;;;;18.77;100.00;101706.28;2094818;28;20044;-73
2022/10/28 03:03:07;;;;;;;15.63;4.32;;;;;;;18.77;100.00;101702.72;2077605;28;20056;-72
2022/10/28 03:04:28;;;;;;;13.30;3.60;;;;;;;18.74;99.31;101700.94;2082986;28;20053;-73
2022/10/28 03:05:51;;;;;;;12.90;3.40;;;;;;;18.71;98.29;101696.47;2090507;28;20516;-73
2022/10/28 03:07:14;;;;;;;14.23;4.47;;;;;;;18.73;96.31;101707.19;2082930;28;20084;-73
2022/10/28 03:08:36;;;;;;;9.25;3.40;;;;;;;18.72;94.92;101700.03;2075211;28;20481;-73
2022/10/28 03:09:59;;;;;;;10.43;3.58;;;;;;;18.73;93.66;101700.94;2081532;28;20110;-73
2022/10/28 03:11:21;;;;;;;14.80;3.85;;;;;;;18.72;92.47;101702.72;2077248;28;20493;-73
2022/10/28 03:12:43;;;;;;;14.02;3.75;;;;;;;18.70;90.82;101693.81;2074753;28;20102;-73
2022/10/28 03:14:05;;;;;;;10.05;3.92;;;;;;;18.72;90.01;101702.72;2077187;28;20053;-72
2022/10/28 03:15:28;;;;;;;9.05;3.40;;;;;;;18.71;88.88;101708.97;2076265;28;20513;-73
2022/10/28 03:16:49;;;;;;;10.02;3.42;;;;;;;18.69;88.25;101708.09;2082722;28;20067;-73
2022/10/28 03:18:12;;;;;;;14.23;4.40;;;;;;;18.67;87.60;101708.09;2085300;28;20140;-73
2022/10/28 03:19:34;;;;;;;9.40;3.75;;;;;;;18.68;87.50;101707.19;2085441;28;20060;-73
2022/10/28 03:20:56;;;;;;;9.63;3.42;;;;;;;18.65;87.43;101695.59;2079459;28;20048;-73
2022/10/28 03:22:20;;;;;;;11.30;3.63;;;;;;;18.65;86.79;101699.16;2083100;28;20057;-73
2022/10/28 03:23:43;;;;;;;9.57;3.83;;;;;;;18.66;86.88;101711.66;2090579;28;20109;-72
2022/10/28 03:25:06;;;;;;;11.52;4.00;;;;;;;18.67;86.88;101707.19;2085721;28;20049;-73
2022/10/28 03:26:27;;;;;;;7.97;3.40;;;;;;;18.64;86.95;101710.75;2085790;28;20045;-73
2022/10/28 03:27:50;;;;;;;14.63;3.88;;;;;;;18.62;87.08;101707.22;2093702;28;20511;-73
2022/10/28 03:29:12;;;;;;;12.68;4.20;;;;;;;18.64;87.56;101704.53;2088119;28;20041;-72
2022/10/28 03:30:33;;;;;;;9.15;4.03;;;;;;;18.61;87.56;101715.25;2079632;28;20049;-73
2022/10/28 03:31:56;;;;;;;11.65;3.35;;;;;;;18.58;87.78;101709.88;2076961;28;20464;-73
2022/10/28 03:33:17;;;;;;;12.93;3.28;;;;;;;18.59;87.22;101709.00;2082994;28;20315;-73
2022/10/28 03:34:39;;;;;;;9.20;3.40;;;;;;;18.56;87.03;101699.22;2092884;28;20287;-73
2022/10/28 03:36:01;;;;;;;9.20;3.15;;;;;;;18.55;86.70;101708.13;2079305;28;20057;-73
2022/10/28 03:37:25;;;;;;;10.60;3.38;;;;;;;18.56;86.68;101706.34;2092461;28;20036;-73
2022/10/28 03:38:47;;;;;;;10.57;3.30;;;;;;;18.55;86.38;101700.09;2089997;28;20049;-73
2022/10/28 03:40:12;;;;;;;11.07;3.83;;;;;;;18.60;86.22;101702.75;2081524;28;20045;-72
2022/10/28 03:41:33;;;;;;;10.95;3.72;;;;;;;18.64;86.08;101700.06;2077540;28;20041;-72
2022/10/28 03:42:55;;;;;;;7.75;3.28;;;;;;;18.68;85.89;101701.84;2094920;28;20068;-73
2022/10/28 03:44:17;;;;;;;12.30;4.07;;;;;;;18.73;85.60;101700.94;2086299;28;20048;-73
2022/10/28 03:45:40;;;;;;;12.15;3.63;;;;;;;18.74;85.81;101702.72;2089322;28;20164;-73
2022/10/28 03:47:03;;;;;;;11.15;3.78;;;;;;;18.72;86.22;101700.03;2085848;28;20051;-73
2022/10/28 03:48:24;;;;;;;13.10;3.88;;;;;;;18.67;86.82;101693.81;2075595;28;20090;-73
2022/10/28 03:49:47;;;;;;;11.45;3.50;;;;;;;18.61;87.79;101686.72;2083154;28;20073;-73
2022/10/28 03:51:09;;;;;;;10.00;3.40;;;;;;;18.57;88.28;101700.09;2084879;28;20052;-72
2022/10/28 03:52:33;;;;;;;7.72;3.50;;;;;;;18.54;88.48;101697.38;2078625;28;20052;-73
2022/10/28 03:53:56;;;;;;;9.60;3.88;;;;;;;18.51;88.27;101695.59;2093137;28;20043;-73
2022/10/28 03:55:17;;;;;;;9.50;4.13;;;;;;;18.47;88.28;101685.81;2092406;28;20057;-73
2022/10/28 03:56:40;;;;;;;9.93;3.17;;;;;;;18.46;87.62;101694.72;2079859;28;20100;-73
2022/10/28 03:58:03;;;;;;;10.75;3.35;;;;;;;18.45;87.31;101690.25;2074674;28;20077;-73
2022/10/28 03:59:26;;;;;;;9.80;3.75;;;;;;;18.46;87.05;101685.81;2074185;28;20065;-73
2022/10/28 04:00:48;;;;;;;12.70;4.03;;;;;;;18.45;86.79;101698.28;2089476;28;20048;-73
2022/10/28 04:02:11;;;;;;;14.90;3.72;;;;;;;18.44;86.51;101690.28;2082713;28;20432;-72
2022/10/28 04:03:33;;;;;;;14.18;3.35;;;;;;;18.44;86.34;101690.28;2090262;28;20052;-73
2022/10/28 04:04:55;;;;;;;8.93;3.90;;;;;;;18.43;86.30;101688.50;2093621;28;20055;-73
2022/10/28 04:06:17;;;;;;;7.82;3.58;;;;;;;18.41;86.21;101690.28;2093571;28;20412;-73
2022/10/28 04:07:41;;;;;;;12.82;3.67;;;;;;;18.44;86.05;101690.28;2099677;28;20159;-73
2022/10/28 04:09:04;;;;;;;9.48;3.63;;;;;;;18.46;85.96;101692.03;2101827;28;20104;-73
2022/10/28 04:10:26;;;;;;;11.38;3.92;;;;;;;18.47;86.00;101695.63;2092623;28;20040;-73
2022/10/28 04:11:49;;;;;;;12.13;4.07;;;;;;;18.46;85.85;101696.50;2082501;28;20053;-73
2022/10/28 04:13:11;;;;;;;10.13;4.00;;;;;;;18.43;85.88;101696.53;2079791;28;20084;-73
2022/10/28 04:14:34;;;;;;;9.48;3.72;;;;;;;18.42;85.92;101682.25;2074625;28;20037;-73
2022/10/28 04:15:56;;;;;;;8.57;3.28;;;;;;;18.45;86.31;101706.31;2092769;28;20062;-74
2022/10/28 04:17:19;;;;;;;11.52;3.33;;;;;;;18.46;86.57;101693.81;2093104;28;20535;-73
2022/10/28 04:18:41;;;;;;;10.10;3.17;;;;;;;18.47;86.84;101696.50;2083805;28;20047;-72
2022/10/28 04:20:03;;;;;;;14.20;3.50;;;;;;;18.51;86.55;101689.38;2080506;28;20060;-73
2022/10/28 04:21:26;;;;;;;11.68;3.15;;;;;;;18.55;86.21;101693.81;2086795;28;20099;-73
2022/10/28 04:22:49;;;;;;;9.18;3.38;;;;;;;18.57;85.97;101692.06;2080140;28;20544;-73
2022/10/28 04:24:12;;;;;;;10.63;3.70;;;;;;;18.57;86.10;101702.78;2087973;28;20468;-72
2022/10/28 04:25:33;;;;;;;11.35;3.35;;;;;;;18.54;86.32;101700.06;2097385;28;20040;-73
2022/10/28 04:26:56;;;;;;;9.00;3.53;;;;;;;18.50;86.74;101693.84;2093451;28;20107;-72
2022/10/28 04:28:18;;;;;;;12.52;3.60;;;;;;;18.48;86.92;101697.41;2091269;28;20531;-73
2022/10/28 04:29:40;;;;;;;10.50;4.05;;;;;;;18.47;86.98;101688.47;2080068;28;20144;-72
2022/10/28 04:31:03;;;;;;;13.45;2.95;;;;;;;18.47;87.18;101690.25;2091005;28;20052;-72
2022/10/28 04:32:24;;;;;;;9.45;3.00;;;;;;;18.50;87.50;101698.28;2093097;28;20045;-72
2022/10/28 04:33:46;;;;;;;11.30;3.03;;;;;;;18.49;87.26;101696.50;2085856;28;20588;-73
2022/10/28 04:35:10;;;;;;;11.52;3.50;;;;;;;18.46;87.39;101699.16;2093972;28;20108;-72
2022/10/28 04:36:31;;;;;;;10.60;3.33;;;;;;;18.42;87.28;101692.97;2095914;28;20048;-72
2022/10/28 04:37:55;;;;;;;10.90;3.33;;;;;;;18.41;87.27;101687.59;2086607;28;20040;-73
2022/10/28 04:39:18;;;;;;;10.63;3.58;;;;;;;18.41;86.93;101693.84;2084259;28;20420;-73
2022/10/28 04:40:39;;;;;;;10.30;3.20;;;;;;;18.41;86.46;101698.28;2090944;28;20067;-72
2022/10/28 04:42:01;;;;;;;11.48;3.33;;;;;;;18.40;86.35;101681.38;2092481;28;20444;-72
2022/10/28 04:43:24;;;;;;;10.80;3.22;;;;;;;18.41;85.65;101695.63;2091594;28;20048;-72
2022/10/28 04:44:45;;;;;;;12.75;3.72;;;;;;;18.40;85.10;101694.72;2098984;28;20539;-73
2022/10/28 04:46:07;;;;;;;11.00;3.90;;;;;;;18.37;85.04;101689.41;2100767;28;20057;-73
2022/10/28 04:47:29;;;;;;;7.90;3.35;;;;;;;18.37;84.99;101701.88;2092800;28;20048;-73
2022/10/28 04:48:52;;;;;;;12.80;3.42;;;;;;;18.35;84.77;101696.53;2093406;28;20037;-73
2022/10/28 04:50:14;;;;;;;10.70;3.45;;;;;;;18.34;85.01;101697.41;2088120;28;20097;-72
2022/10/28 04:51:37;;;;;;;8.65;3.08;;;;;;;18.37;84.67;101691.19;2093538;28;20569;-73
2022/10/28 04:52:59;;;;;;;8.70;3.63;;;;;;;18.43;84.49;101692.06;2084792;28;20412;-72
2022/10/28 04:54:22;;;;;;;10.13;3.85;;;;;;;18.48;84.44;101686.69;2098828;28;20087;-72
2022/10/28 04:55:44;;;;;;;10.25;3.30;;;;;;;18.52;84.16;101689.34;2101814;28;20047;-72
2022/10/28 04:57:06;;;;;;;10.10;3.70;;;;;;;18.58;84.33;101685.81;2109495;28;20039;-72
2022/10/28 04:58:29;;;;;;;11.90;3.78;;;;;;;18.62;83.75;101684.94;2099448;28;20059;-73
2022/10/28 04:59:51;;;;;;;11.57;3.53;;;;;;;18.68;83.84;101695.59;2084966;28;20778;-73
2022/10/28 05:01:14;;;;;;;18.83;3.85;;;;;;;18.69;83.75;101700.06;2093095;28;20055;-73
2022/10/28 05:02:35;;;;;;;12.13;3.67;;;;;;;18.67;83.82;101694.72;2084729;28;20370;-72
2022/10/28 05:03:58;;;;;;;15.85;3.97;;;;;;;18.68;84.06;101698.28;2084942;28;20057;-72
2022/10/28 05:05:21;;;;;;;11.23;3.75;;;;;;;18.68;84.66;101700.94;2093488;28;20389;-73
2022/10/28 05:06:43;;;;;;;12.23;3.67;;;;;;;18.65;85.22;101698.28;2093185;28;20105;-73
2022/10/28 05:08:08;;;;;;;11.73;3.60;;;;;;;18.62;85.91;101700.97;2084994;28;20761;-73
2022/10/28 05:09:30;;;;;;;9.68;2.67;;;;;;;18.59;86.53;101711.66;2082671;28;20060;-72
2022/10/28 05:10:52;;;;;;;11.00;2.85;;;;;;;18.59;86.56;101706.31;2101499;28;20082;-73
2022/10/28 05:12:15;;;;;;;12.60;3.65;;;;;;;18.60;86.62;101692.06;2082978;28;20557;-72
2022/10/28 05:13:37;;;;;;;11.60;3.53;;;;;;;18.64;85.79;101699.19;2077051;28;20111;-73
2022/10/28 05:15:00;;;;;;;9.50;2.90;;;;;;;18.68;85.59;101698.28;2082494;28;20054;-73
2022/10/28 05:16:21;;;;;;;8.43;3.58;;;;;;;18.74;85.52;101700.94;2077454;28;20080;-73
2022/10/28 05:17:45;;;;;;;8.38;3.15;;;;;;;18.82;85.39;101696.47;2074990;28;20045;-72
2022/10/28 05:19:08;;;;;;;11.43;3.58;;;;;;;18.92;85.47;101703.53;2092029;28;20496;-72
2022/10/28 05:20:31;;;;;;;9.52;3.65;;;;;;;19.01;85.63;101690.16;2097483;28;20048;-73
2022/10/28 05:21:53;;;;;;;8.73;3.22;;;;;;;19.11;85.95;101696.31;2103296;28;20052;-72
2022/10/28 05:23:17;;;;;;;7.65;2.80;;;;;;;19.22;85.22;101693.63;2095299;28;20048;-73
2022/10/28 05:24:38;;;;;;;11.07;3.38;;;;;;;19.34;84.71;101690.88;2088912;28;20045;-73
2022/10/28 05:26:01;;;;;;;8.88;3.05;;;;;;;19.44;83.86;101700.63;2087188;28;20145;-72
2022/10/28 05:27:22;;;;;;;11.85;3.50;;;;;;;19.56;83.39;101705.06;2094551;28;20056;-73
2022/10/28 05:28:44;;;;;;;11.02;3.25;;;;;;;19.66;83.26;101705.00;2086136;28;20076;-72
2022/10/28 05:30:08;;;;;;;11.77;3.20;;;;;;;19.77;82.94;101700.44;2089814;28;20041;-73
2022/10/28 05:31:30;;;;;;;13.40;3.35;;;;;;;19.87;82.28;101699.50;2094732;28;20044;-73
2022/10/28 05:32:59;;;;;;;9.07;3.28;;;;;;;19.98;81.38;101709.22;2085417;28;20060;-73
2022/10/28 05:34:21;;;;;;;11.75;3.28;;;;;;;20.06;80.44;101697.53;2087711;28;20167;-74
2022/10/28 05:35:43;;;;;;;6.93;2.85;;;;;;;20.17;79.89;101701.00;2097374;28;20090;-73
2022/10/28 05:37:05;;;;;;;9.38;3.25;;;;;;;20.30;79.58;101694.63;2094702;28;20408;-73
2022/10/28 05:38:29;;;;;;;7.47;2.65;;;;;;;20.43;78.91;101694.56;2093206;28;20095;-74
2022/10/28 05:39:51;;;;;;;12.85;3.25;;;;;;;20.55;78.66;101700.69;2080121;28;20052;-73
2022/10/28 05:41:14;;;;;;;8.80;2.88;;;;;;;20.66;78.56;101696.09;2073465;28;20038;-74
2022/10/28 05:42:41;;;;;;;13.38;3.28;;;;;;;20.70;77.72;101702.31;2085670;28;20041;-74
2022/10/28 05:44:04;;;;;;;8.73;3.08;;;;;;;20.64;77.98;101707.75;2094996;28;20040;-74
2022/10/28 05:45:27;;;;;;;10.30;3.33;;;;;;;20.56;78.74;101694.41;2081627;28;20044;-74
2022/10/28 05:46:49;;;;;;;9.45;3.85;;;;;;;20.45;79.50;101706.16;2091433;28;20053;-74
2022/10/28 05:48:12;;;;;;;10.88;3.67;;;;;;;20.32;80.54;101702.69;2086095;28;20079;-74
2022/10/28 05:49:36;;;;;;;10.30;3.58;;;;;;;20.22;81.30;101704.53;2074122;28;20042;-74
2022/10/28 05:50:59;;;;;;;10.38;3.40;;;;;;;20.14;82.06;101698.38;2092528;28;20032;-74
2022/10/28 05:52:22;;;;;;;11.82;3.95;;;;;;;20.07;82.66;101709.16;2083787;28;20037;-74
2022/10/28 05:53:46;;;;;;;10.25;3.65;;;;;;;20.00;83.23;101692.25;2083651;28;20045;-73
2022/10/28 05:55:10;;;;;;;15.23;3.67;;;;;;;19.96;83.45;101695.81;2084350;28;20135;-73
2022/10/28 05:56:33;;;;;;;13.77;3.83;;;;;;;19.91;84.04;101692.31;2074743;28;20087;-73
2022/10/28 05:57:56;;;;;;;12.95;3.63;;;;;;;19.86;84.70;101699.50;2080972;28;20052;-72
2022/10/28 05:59:20;;;;;;;12.38;3.80;;;;;;;19.80;85.32;101716.50;2087126;28;20516;-72
2022/10/28 06:00:43;;;;;;;13.45;4.22;;;;;;;19.77;85.78;101716.53;2086793;28;20033;-72
2022/10/28 06:02:05;;;;;;;11.10;3.72;;;;;;;19.72;86.35;101721.03;2086401;28;20558;-73
2022/10/28 06:03:27;;;;;;;13.18;4.82;;;;;;;19.71;86.96;101732.63;2086463;28;20136;-72
2022/10/28 06:04:50;;;;;;;12.23;3.78;;;;;;;19.68;87.04;101732.69;2085768;28;20671;-72
2022/10/28 06:06:12;;;;;;;14.80;3.70;;;;;;;19.66;87.09;101733.56;2102601;28;20077;-73
2022/10/28 06:07:34;;;;;;;10.98;3.92;;;;;;;19.64;87.21;101733.56;2098337;28;20096;-73
2022/10/28 06:08:58;;;;;;;10.68;3.40;;;;;;;19.64;86.84;101738.03;2091205;28;20041;-72
2022/10/28 06:10:20;;;;;;;14.45;4.43;;;;;;;19.64;87.02;101738.03;2073775;28;21655;-73
2022/10/28 06:11:43;;;;;;;9.07;3.50;;;;;;;19.65;87.18;101739.81;2069815;28;20100;-72
2022/10/28 06:13:05;;;;;;;13.05;3.50;;;;;;;19.64;87.06;101730.00;2079174;28;20045;-73
2022/10/28 06:14:28;;;;;;;17.33;4.78;;;;;;;19.62;87.32;101738.06;2075112;28;20180;-72
2022/10/28 06:15:54;;;;;;;12.32;4.60;;;;;;;19.63;87.30;101738.94;2089354;28;20037;-73
2022/10/28 06:17:16;;;;;;;12.73;3.47;;;;;;;19.66;87.39;101742.50;2092031;28;20056;-72
2022/10/28 06:18:38;;;;;;;16.23;4.07;;;;;;;19.71;87.68;101742.47;2076956;28;20075;-72
2022/10/28 06:20:01;;;;;;;9.70;3.28;;;;;;;19.74;87.65;101747.81;2077617;28;20057;-72
2022/10/28 06:21:23;;;;;;;8.82;3.85;;;;;;;19.79;87.68;101748.69;2085535;28;20612;-72
2022/10/28 06:22:49;;;;;;;16.17;3.80;;;;;;;19.96;87.76;101746.75;2079711;28;20397;-72
2022/10/28 06:24:13;;;;;;;8.27;3.25;;;;;;;20.04;87.24;101742.22;2078243;28;20045;-71
2022/10/28 06:25:36;;;;;;;14.30;4.35;;;;;;;20.06;86.63;101744.91;2084731;28;20041;-72
2022/10/28 06:26:58;;;;;;;13.73;3.00;;;;;;;20.05;86.10;101745.81;2069062;28;20046;-72
2022/10/28 06:28:21;;;;;;;10.52;3.33;;;;;;;20.06;85.69;101744.91;2080640;28;20060;-72
2022/10/28 06:29:44;;;;;;;13.73;3.92;;;;;;;20.10;85.28;101736.81;2088577;28;20437;-72
2022/10/28 06:31:08;;;;;;;14.30;3.70;;;;;;;20.10;84.40;101731.47;2096908;28;20052;-72